Aérodrome :
LOGIN :

S'inscrire | Disclaimer

   EN    FR    IT 

 










Légende :    VFR   VFR Marginal   IFR   IFR Intensif   IFR Très Intensif
Visi : 
Plafond : 
>= 8 km
>= 3000ft
5 à 8 km
1000 à 3000 ft
1500m à 5 km
500 à 1000 ft
800 à 1500m
200 à 500 ft
< 800m
< 200 ft
Symboles :   Orages  Brouillard  Fortes neiges  Fortes précipitations  Vent > 20 kt
SIGMETs :   Divers  Orages  Givrage  Turbulence  Onde Orograph.  Cendres Volcan.







- Altitude de l'aérodrome : 699 ft
- Code IATA : PAD


EDLP - Paderborn Lippstadt

DERNIER METAR :
  • 121750Z 24009KT 9999 SCT016 BKN020 02/M00 Q1011

METARs EXPIRÉS :
  • 121720Z 24009KT 9999 SCT015 BKN018 01/M00 Q1011
  • 121650Z 24009KT 9999 SCT015 BKN019 02/M00 Q1011
  • 121620Z 25010KT 220V280 9999 SCT015 BKN019 02/M00 Q1010
  • 121550Z 24010KT 9999 SCT016 SCT019 02/M00 Q1009
  • 121520Z 25007KT 9000 FEW013 SCT035 02/M00 Q1009

TAF TAF EDLP
Valide du 12 à 18h jusqu'au 13 à 18h UTC


121700Z 1218/1318 23010KT 9999 SCT015 BKN020
TEMPO 1218/1223 BKN012
BECMG 1303/1306 19015G25KT
TEMPO 1310/1318 21020G35KT RA
Pas de NOTAMs connus pour ce terrain.



MET'MAP, la Météo Aéronautique d'un coup d'oeil ! - Copyright ORBIFLY Décembre 2007 - Disclaimer

ORBIFLY MET'MAP TEAM :

Programmation & Développement : Alexandra Zaïnal
Conception & Développement : Baudouin d'Aumeries
Co-Programmation & Développement : Marc-Olivier Méhu
Soutien technique & logistique : Manuel Goepfert

Contact : metmap@orbifly.com




SOURCES & CREDITS :

   NOAA